Time;durP1;ratioP1;P1;durP2;ratioP2;P2;SDS_P1;SDS_P2;PMS_P1;PMS_P2;Temp;Humidity;BMP_temperature;BMP_pressure;BME280_temperature;BME280_humidity;BME280_pressure;Samples;Min_cycle;Max_cycle;Signal;HPM_P1;HPM_P2
2022/06/20 00:00:12;;;;;;;35.28;7.25;;;;;;;;;;5077184;28;20393;-60
2022/06/20 00:02:42;;;;;;;26.27;5.47;;;;;;;;;;5056231;28;20121;-60
2022/06/20 00:05:11;;;;;;;29.55;5.78;;;;;;;;;;5067962;28;20040;-61
2022/06/20 00:07:37;;;;;;;34.53;6.32;;;;;;;;;;5061625;28;20093;-60
2022/06/20 00:10:04;;;;;;;39.85;6.82;;;;;;;;;;5059666;28;20028;-60
2022/06/20 00:12:30;;;;;;;29.02;6.07;;;;;;;;;;5068676;28;20037;-60
2022/06/20 00:14:57;;;;;;;31.13;6.75;;;;;;;;;;5068452;28;20021;-60
2022/06/20 00:17:24;;;;;;;26.73;5.72;;;;;;;;;;5059652;28;20095;-60
2022/06/20 00:19:50;;;;;;;36.63;5.65;;;;;;;;;;5061283;28;20029;-60
2022/06/20 00:22:16;;;;;;;41.33;8.63;;;;;;;;;;5066497;28;20035;-61
2022/06/20 00:24:42;;;;;;;27.80;5.47;;;;;;;;;;5055141;28;20071;-60
2022/06/20 00:27:08;;;;;;;28.52;6.03;;;;;;;;;;5067521;28;20029;-60
2022/06/20 00:29:35;;;;;;;30.45;6.82;;;;;;;;;;5060118;28;20056;-60
2022/06/20 00:32:02;;;;;;;35.83;8.38;;;;;;;;;;5059916;28;20025;-60
2022/06/20 00:34:28;;;;;;;32.95;7.03;;;;;;;;;;5067634;28;20025;-60
2022/06/20 00:36:54;;;;;;;43.03;7.35;;;;;;;;;;5055292;28;20033;-60
2022/06/20 00:39:21;;;;;;;40.53;8.57;;;;;;;;;;5066094;28;20029;-60
2022/06/20 00:41:48;;;;;;;43.80;7.18;;;;;;;;;;5060460;28;20077;-60
2022/06/20 00:44:16;;;;;;;34.08;6.80;;;;;;;;;;5058161;28;20512;-60
2022/06/20 00:46:47;;;;;;;32.80;6.57;;;;;;;;;;5068051;28;20511;-60
2022/06/20 00:49:34;;;;;;;33.50;8.38;;;;;;;;;;5056650;28;20082;-60
2022/06/20 00:52:00;;;;;;;42.63;7.60;;;;;;;;;;5060156;28;20025;-60
2022/06/20 00:54:35;;;;;;;29.75;7.30;;;;;;;;;;5066823;28;20025;-60
2022/06/20 00:57:07;;;;;;;42.05;8.75;;;;;;;;;;5067939;28;20033;-60
2022/06/20 00:59:41;;;;;;;44.80;9.80;;;;;;;;;;5058878;28;20044;-60
2022/06/20 01:02:08;;;;;;;31.73;7.60;;;;;;;;;;5059317;28;20357;-61
2022/06/20 01:04:45;;;;;;;32.33;7.40;;;;;;;;;;5068011;28;20039;-60
2022/06/20 01:07:13;;;;;;;32.67;7.10;;;;;;;;;;5056397;28;20045;-60
2022/06/20 01:09:41;;;;;;;34.58;7.20;;;;;;;;;;5066353;28;20050;-60
2022/06/20 01:12:10;;;;;;;40.38;8.15;;;;;;;;;;5059311;28;20381;-60
2022/06/20 01:14:41;;;;;;;42.80;7.90;;;;;;;;;;5067490;28;20476;-60
2022/06/20 01:17:22;;;;;;;33.95;8.32;;;;;;;;;;5055175;28;20067;-60
2022/06/20 01:19:54;;;;;;;38.55;7.25;;;;;;;;;;5061946;28;20408;-60
2022/06/20 01:22:28;;;;;;;39.15;8.27;;;;;;;;;;5065266;28;20033;-60
2022/06/20 01:25:15;;;;;;;38.45;9.15;;;;;;;;;;5054543;28;20530;-60
2022/06/20 01:27:42;;;;;;;34.28;6.90;;;;;;;;;;5062708;28;20039;-60
2022/06/20 01:30:09;;;;;;;44.80;8.23;;;;;;;;;;5063321;28;20039;-60
2022/06/20 01:32:36;;;;;;;44.42;7.95;;;;;;;;;;5055979;28;20052;-60
2022/06/20 01:35:04;;;;;;;41.70;7.95;;;;;;;;;;5067488;28;20020;-60
2022/06/20 01:37:33;;;;;;;37.20;7.47;;;;;;;;;;5058368;28;20021;-60
2022/06/20 01:40:01;;;;;;;38.40;7.93;;;;;;;;;;5060704;28;20025;-60
2022/06/20 01:42:29;;;;;;;44.65;8.35;;;;;;;;;;5065356;28;20036;-60
2022/06/20 01:44:58;;;;;;;42.53;7.68;;;;;;;;;;5054199;28;20029;-61
2022/06/20 01:47:25;;;;;;;34.38;8.55;;;;;;;;;;5065787;28;20033;-60
2022/06/20 01:49:53;;;;;;;24.25;6.03;;;;;;;;;;5060279;28;20541;-60
2022/06/20 01:52:29;;;;;;;34.05;6.78;;;;;;;;;;5058116;28;20125;-61
2022/06/20 01:54:57;;;;;;;29.67;6.85;;;;;;;;;;5068257;28;20025;-60
2022/06/20 01:57:23;;;;;;;30.27;6.93;;;;;;;;;;5065844;28;20021;-60
2022/06/20 01:59:57;;;;;;;38.72;7.53;;;;;;;;;;5060175;28;20040;-60
2022/06/20 02:02:23;;;;;;;39.88;6.90;;;;;;;;;;5061292;28;20041;-60
2022/06/20 02:04:50;;;;;;;44.83;7.10;;;;;;;;;;5071011;28;20438;-60
2022/06/20 02:07:16;;;;;;;34.33;7.55;;;;;;;;;;5059051;28;20116;-60
2022/06/20 02:09:42;;;;;;;27.58;6.60;;;;;;;;;;5067098;28;20393;-60
2022/06/20 02:12:09;;;;;;;46.58;7.28;;;;;;;;;;5065631;28;20040;-60
2022/06/20 02:14:44;;;;;;;29.77;6.53;;;;;;;;;;5059745;28;20021;-60
2022/06/20 02:17:13;;;;;;;39.38;7.28;;;;;;;;;;5070792;28;20025;-60
2022/06/20 02:19:43;;;;;;;32.35;8.27;;;;;;;;;;5061722;28;20051;-60
2022/06/20 02:22:10;;;;;;;30.63;6.53;;;;;;;;;;5063272;28;20029;-60
2022/06/20 02:24:38;;;;;;;31.67;7.03;;;;;;;;;;5069648;28;20111;-60
2022/06/20 02:27:06;;;;;;;36.47;7.07;;;;;;;;;;5057104;28;20032;-61
2022/06/20 02:29:32;;;;;;;35.08;6.10;;;;;;;;;;5068430;28;20016;-60
2022/06/20 02:32:11;;;;;;;36.75;6.32;;;;;;;;;;5063714;28;20056;-60
2022/06/20 02:34:38;;;;;;;39.28;7.78;;;;;;;;;;5059515;28;20041;-60
2022/06/20 02:37:09;;;;;;;44.72;6.43;;;;;;;;;;5070251;28;20032;-60
2022/06/20 02:39:38;;;;;;;34.22;6.45;;;;;;;;;;5060444;28;20435;-60
2022/06/20 02:42:06;;;;;;;46.33;8.02;;;;;;;;;;5063638;28;20025;-60
2022/06/20 02:44:33;;;;;;;35.20;6.53;;;;;;;;;;5068235;28;20075;-60
2022/06/20 02:47:02;;;;;;;55.40;7.47;;;;;;;;;;5057040;28;20059;-60
2022/06/20 02:49:30;;;;;;;38.13;6.88;;;;;;;;;;5066276;28;20037;-60
2022/06/20 02:51:57;;;;;;;35.15;6.65;;;;;;;;;;5061668;28;20484;-60
2022/06/20 02:54:25;;;;;;;43.85;6.57;;;;;;;;;;5061037;28;20070;-61
2022/06/20 02:56:53;;;;;;;41.65;5.75;;;;;;;;;;5056706;28;20021;-60
2022/06/20 02:59:22;;;;;;;37.17;7.07;;;;;;;;;;5069576;28;20055;-60
2022/06/20 03:01:49;;;;;;;28.92;6.22;;;;;;;;;;5062008;28;20036;-60
2022/06/20 03:04:17;;;;;;;36.38;6.50;;;;;;;;;;5062024;28;20049;-60
2022/06/20 03:06:47;;;;;;;34.75;5.95;;;;;;;;;;5062821;28;20033;-60
2022/06/20 03:09:14;;;;;;;35.72;6.15;;;;;;;;;;5060800;28;20029;-61
2022/06/20 03:11:40;;;;;;;34.63;6.90;;;;;;;;;;5059125;28;20021;-60
2022/06/20 03:14:08;;;;;;;27.00;6.30;;;;;;;;;;5053052;28;20029;-60
2022/06/20 03:16:34;;;;;;;37.78;6.97;;;;;;;;;;5058553;28;20024;-60
2022/06/20 03:19:02;;;;;;;31.88;6.95;;;;;;;;;;5071609;28;20032;-60
2022/06/20 03:21:31;;;;;;;52.35;7.57;;;;;;;;;;5060882;28;20005;-60
2022/06/20 03:23:57;;;;;;;34.38;6.05;;;;;;;;;;5054949;28;20086;-60
2022/06/20 03:26:25;;;;;;;38.80;7.57;;;;;;;;;;5064425;28;20036;-60
2022/06/20 03:28:51;;;;;;;28.48;6.20;;;;;;;;;;5057319;28;20029;-61
2022/06/20 03:31:18;;;;;;;33.75;6.70;;;;;;;;;;5068815;28;20481;-60
2022/06/20 03:33:44;;;;;;;42.10;6.82;;;;;;;;;;5059379;28;20477;-60
2022/06/20 03:36:15;;;;;;;33.45;6.68;;;;;;;;;;5062457;28;20504;-60
2022/06/20 03:38:42;;;;;;;26.75;6.85;;;;;;;;;;5066404;28;20036;-60
2022/06/20 03:41:10;;;;;;;41.85;7.30;;;;;;;;;;5068915;28;20037;-60
2022/06/20 03:43:37;;;;;;;40.95;8.45;;;;;;;;;;5067509;28;20029;-60
2022/06/20 03:46:33;;;;;;;25.55;5.72;;;;;;;;;;5061412;28;20028;-61
2022/06/20 03:49:02;;;;;;;35.63;6.90;;;;;;;;;;5056567;28;20033;-60
2022/06/20 03:51:48;;;;;;;32.80;6.75;;;;;;;;;;5067051;28;20032;-60
2022/06/20 03:54:27;;;;;;;33.03;5.90;;;;;;;;;;5060279;28;20047;-60
2022/06/20 03:56:53;;;;;;;28.52;6.35;;;;;;;;;;5065944;28;20029;-60
2022/06/20 03:59:24;;;;;;;37.00;6.32;;;;;;;;;;5061576;28;20084;-60
2022/06/20 04:02:05;;;;;;;33.58;6.00;;;;;;;;;;5060988;28;20497;-60
2022/06/20 04:04:37;;;;;;;40.80;6.93;;;;;;;;;;5060999;28;20028;-61
2022/06/20 04:07:06;;;;;;;27.53;5.03;;;;;;;;;;5066381;28;20029;-60
2022/06/20 04:12:53;;;;;;;36.78;6.47;;;;;;;;;;5050998;28;20114;-60
2022/06/20 04:15:26;;;;;;;27.60;5.82;;;;;;;;;;5066797;28;20025;-60
2022/06/20 04:20:56;;;;;;;28.40;4.47;;;;;;;;;;5069989;28;19934;-60
2022/06/20 04:23:25;;;;;;;21.55;5.20;;;;;;;;;;5068051;28;20508;-60
2022/06/20 04:25:54;;;;;;;25.27;4.88;;;;;;;;;;5051989;28;20495;-60
2022/06/20 04:28:52;;;;;;;34.92;5.13;;;;;;;;;;5050678;28;20455;-61
2022/06/20 04:31:19;;;;;;;27.52;4.95;;;;;;;;;;5030876;28;20527;-60
2022/06/20 04:33:45;;;;;;;32.10;5.00;;;;;;;;;;5067268;28;20009;-60
2022/06/20 04:36:14;;;;;;;28.05;6.03;;;;;;;;;;5060210;28;20089;-60
2022/06/20 04:38:45;;;;;;;30.27;4.78;;;;;;;;;;5059600;28;20052;-60
2022/06/20 04:41:14;;;;;;;23.60;4.05;;;;;;;;;;5068406;28;20128;-60
2022/06/20 04:43:43;;;;;;;30.10;4.70;;;;;;;;;;5055602;28;20013;-60
2022/06/20 04:46:10;;;;;;;28.85;4.15;;;;;;;;;;5059203;28;20063;-60
2022/06/20 04:48:36;;;;;;;22.58;4.65;;;;;;;;;;5058422;28;20040;-60
2022/06/20 04:51:05;;;;;;;22.95;4.38;;;;;;;;;;5054716;28;20163;-60
2022/06/20 04:53:33;;;;;;;27.90;4.20;;;;;;;;;;5060118;28;20074;-60
2022/06/20 04:56:02;;;;;;;23.85;3.83;;;;;;;;;;5056182;28;20017;-60
2022/06/20 04:58:36;;;;;;;26.33;4.13;;;;;;;;;;5056202;28;20036;-60
2022/06/20 05:01:03;;;;;;;33.88;4.65;;;;;;;;;;5052210;28;20119;-60
2022/06/20 05:03:31;;;;;;;27.55;3.88;;;;;;;;;;5057329;28;20154;-60
2022/06/20 05:05:59;;;;;;;19.73;3.30;;;;;;;;;;5053912;28;20043;-60
2022/06/20 05:08:27;;;;;;;19.10;3.58;;;;;;;;;;5053311;28;20041;-60
2022/06/20 05:11:03;;;;;;;33.08;4.07;;;;;;;;;;5056763;28;20076;-68
2022/06/20 05:13:49;;;;;;;26.40;4.43;;;;;;;;;;5052478;28;20090;-61
2022/06/20 05:16:34;;;;;;;24.98;4.47;;;;;;;;;;5052125;28;20033;-61
2022/06/20 05:19:06;;;;;;;18.83;3.95;;;;;;;;;;5049332;28;20033;-61
2022/06/20 05:21:41;;;;;;;21.25;4.28;;;;;;;;;;5051798;28;20268;-61
2022/06/20 05:24:12;;;;;;;18.73;3.78;;;;;;;;;;5052868;28;20473;-61
2022/06/20 05:26:40;;;;;;;25.75;4.70;;;;;;;;;;5055961;28;20082;-61
2022/06/20 05:29:08;;;;;;;26.92;3.97;;;;;;;;;;5059103;28;20488;-60
2022/06/20 05:31:40;;;;;;;26.35;4.13;;;;;;;;;;5049951;28;20017;-61
2022/06/20 05:34:06;;;;;;;17.42;3.95;;;;;;;;;;5059550;28;20021;-61
2022/06/20 05:36:36;;;;;;;31.45;4.60;;;;;;;;;;5056483;28;20033;-61
2022/06/20 05:39:18;;;;;;;24.13;3.72;;;;;;;;;;5057646;28;20111;-61
2022/06/20 05:41:45;;;;;;;26.10;3.90;;;;;;;;;;5059307;28;20024;-61
2022/06/20 05:44:12;;;;;;;28.02;3.63;;;;;;;;;;5063646;28;20074;-61
2022/06/20 05:46:49;;;;;;;17.33;3.78;;;;;;;;;;5066172;28;20121;-61
2022/06/20 05:49:27;;;;;;;20.40;4.47;;;;;;;;;;5071201;28;20033;-61
2022/06/20 05:51:54;;;;;;;20.67;3.75;;;;;;;;;;5059809;28;20032;-61
2022/06/20 05:54:22;;;;;;;25.45;7.35;;;;;;;;;;5060299;28;20020;-61
2022/06/20 05:56:54;;;;;;;21.73;3.85;;;;;;;;;;5059136;28;20032;-61
2022/06/20 05:59:39;;;;;;;38.70;4.35;;;;;;;;;;5058948;28;20045;-61
2022/06/20 06:02:27;;;;;;;15.43;3.38;;;;;;;;;;5056828;28;20036;-60
2022/06/20 06:04:59;;;;;;;25.13;4.13;;;;;;;;;;5060691;28;20607;-61
2022/06/20 06:07:48;;;;;;;25.10;4.88;;;;;;;;;;5058487;28;20135;-61
2022/06/20 06:10:24;;;;;;;21.15;4.72;;;;;;;;;;5055395;28;20048;-60
2022/06/20 06:12:56;;;;;;;25.92;4.18;;;;;;;;;;5061017;28;20029;-61
2022/06/20 06:15:39;;;;;;;21.40;4.75;;;;;;;;;;5063804;28;20111;-61
2022/06/20 06:18:09;;;;;;;26.83;4.05;;;;;;;;;;5061505;28;20035;-61
2022/06/20 06:20:36;;;;;;;17.98;4.05;;;;;;;;;;5066700;28;20401;-61
2022/06/20 06:23:07;;;;;;;21.70;3.70;;;;;;;;;;5054004;28;20037;-61
2022/06/20 06:25:35;;;;;;;20.55;4.30;;;;;;;;;;5054543;28;20396;-61
2022/06/20 06:28:21;;;;;;;19.77;4.43;;;;;;;;;;5057952;28;20035;-61
2022/06/20 06:31:02;;;;;;;15.50;4.03;;;;;;;;;;5057316;28;20382;-61
2022/06/20 06:33:31;;;;;;;21.50;5.18;;;;;;;;;;5057051;28;20025;-61
2022/06/20 06:36:15;;;;;;;20.88;4.30;;;;;;;;;;5064863;28;20049;-61
2022/06/20 06:38:48;;;;;;;28.77;6.03;;;;;;;;;;5057330;28;20408;-62
2022/06/20 06:41:27;;;;;;;21.70;3.88;;;;;;;;;;5056382;28;20044;-61
2022/06/20 06:43:54;;;;;;;19.73;4.70;;;;;;;;;;5062958;28;20033;-61
2022/06/20 06:46:41;;;;;;;22.90;5.45;;;;;;;;;;5063153;28;20048;-62
2022/06/20 06:49:07;;;;;;;21.25;4.35;;;;;;;;;;5064772;28;20500;-61
2022/06/20 06:51:52;;;;;;;30.70;4.75;;;;;;;;;;5056397;28;20370;-61
2022/06/20 06:54:24;;;;;;;26.98;4.50;;;;;;;;;;5057010;28;20407;-61
2022/06/20 06:57:09;;;;;;;24.58;5.75;;;;;;;;;;5058606;28;20048;-61
2022/06/20 06:59:50;;;;;;;26.60;4.85;;;;;;;;;;5055008;28;20076;-62
2022/06/20 07:02:23;;;;;;;21.65;3.78;;;;;;;;;;5057651;28;20609;-61
2022/06/20 07:04:57;;;;;;;20.15;4.03;;;;;;;;;;5058820;28;20405;-62
2022/06/20 07:07:52;;;;;;;34.00;5.45;;;;;;;;;;5056287;28;20040;-62
2022/06/20 07:10:21;;;;;;;17.33;4.30;;;;;;;;;;5053659;28;20145;-62
2022/06/20 07:12:50;;;;;;;20.48;4.40;;;;;;;;;;5057621;28;20096;-62
2022/06/20 07:15:18;;;;;;;19.08;5.32;;;;;;;;;;5057366;28;20103;-62
2022/06/20 07:17:50;;;;;;;34.83;6.22;;;;;;;;;;5064176;28;20024;-62
2022/06/20 07:20:18;;;;;;;29.60;5.95;;;;;;;;;;5059488;28;20093;-62
2022/06/20 07:22:44;;;;;;;25.80;4.70;;;;;;;;;;5070474;28;20382;-61
2022/06/20 07:25:17;;;;;;;23.73;4.57;;;;;;;;;;5062588;28;20036;-62
2022/06/20 07:27:47;;;;;;;21.88;4.85;;;;;;;;;;5059648;28;20123;-62
2022/06/20 07:30:16;;;;;;;25.95;5.57;;;;;;;;;;5061272;28;20035;-62
2022/06/20 07:32:48;;;;;;;24.17;4.93;;;;;;;;;;5059809;28;20012;-62
2022/06/20 07:35:17;;;;;;;27.02;5.18;;;;;;;;;;5071079;28;20029;-62
2022/06/20 07:37:47;;;;;;;30.48;5.20;;;;;;;;;;5062676;28;20025;-62
2022/06/20 07:40:13;;;;;;;25.75;5.22;;;;;;;;;;5061745;28;20032;-62
2022/06/20 07:42:51;;;;;;;28.98;5.88;;;;;;;;;;5061489;28;20020;-62
2022/06/20 07:45:20;;;;;;;30.92;6.00;;;;;;;;;;5060311;28;20032;-61
2022/06/20 07:47:46;;;;;;;29.05;5.30;;;;;;;;;;5059863;28;20504;-61
2022/06/20 07:50:15;;;;;;;29.13;5.40;;;;;;;;;;5059674;28;20174;-62
2022/06/20 07:52:44;;;;;;;28.35;5.90;;;;;;;;;;5060609;28;20428;-62
2022/06/20 07:55:19;;;;;;;29.13;6.05;;;;;;;;;;5058263;28;20021;-62
2022/06/20 07:57:51;;;;;;;37.42;6.53;;;;;;;;;;5061068;28;20032;-62
2022/06/20 08:00:22;;;;;;;32.97;6.43;;;;;;;;;;5057164;28;20041;-62
2022/06/20 08:02:51;;;;;;;22.63;5.70;;;;;;;;;;5057397;28;20287;-62
2022/06/20 08:05:21;;;;;;;33.28;6.38;;;;;;;;;;5059744;28;20021;-62
2022/06/20 08:08:10;;;;;;;27.00;6.60;;;;;;;;;;5059558;28;20028;-62
2022/06/20 08:10:48;;;;;;;22.23;5.80;;;;;;;;;;5055201;28;20041;-62
2022/06/20 08:13:14;;;;;;;25.20;5.25;;;;;;;;;;5058161;28;20021;-62
2022/06/20 08:15:48;;;;;;;24.67;5.47;;;;;;;;;;5058745;28;20110;-62
2022/06/20 08:18:14;;;;;;;21.00;5.82;;;;;;;;;;5068497;28;20032;-61
2022/06/20 08:20:43;;;;;;;23.77;5.82;;;;;;;;;;5061512;28;20025;-62
2022/06/20 08:23:13;;;;;;;27.67;5.72;;;;;;;;;;5061391;28;20450;-62
2022/06/20 08:25:42;;;;;;;30.88;6.15;;;;;;;;;;5059846;28;20021;-62
2022/06/20 08:28:19;;;;;;;26.00;6.65;;;;;;;;;;5057569;28;20112;-61
2022/06/20 08:30:50;;;;;;;28.42;5.95;;;;;;;;;;5059430;28;20025;-62
2022/06/20 08:33:35;;;;;;;22.02;5.35;;;;;;;;;;5063806;28;20036;-62
2022/06/20 08:36:14;;;;;;;30.40;5.38;;;;;;;;;;5059935;28;20062;-62
2022/06/20 08:38:59;;;;;;;38.20;5.93;;;;;;;;;;5059425;28;20029;-62
2022/06/20 08:41:38;;;;;;;21.90;5.93;;;;;;;;;;5059049;28;20032;-62
2022/06/20 08:44:15;;;;;;;22.13;5.57;;;;;;;;;;5058755;28;20028;-62
2022/06/20 08:46:47;;;;;;;19.23;5.07;;;;;;;;;;5066214;28;20353;-62
2022/06/20 08:49:19;;;;;;;21.90;5.60;;;;;;;;;;5056247;28;20193;-61
2022/06/20 08:52:06;;;;;;;27.85;6.93;;;;;;;;;;5059211;28;20029;-62
2022/06/20 08:54:35;;;;;;;22.75;5.45;;;;;;;;;;5054763;28;20415;-62
2022/06/20 08:57:06;;;;;;;23.90;6.03;;;;;;;;;;5064035;28;20388;-62
2022/06/20 08:59:48;;;;;;;26.38;5.85;;;;;;;;;;5056765;28;20040;-62
2022/06/20 09:02:20;;;;;;;24.27;5.78;;;;;;;;;;5060556;28;20041;-62
2022/06/20 09:04:46;;;;;;;29.63;5.38;;;;;;;;;;5061359;28;20378;-62
2022/06/20 09:07:28;;;;;;;33.92;5.80;;;;;;;;;;5055094;28;20033;-62
2022/06/20 09:10:10;;;;;;;31.70;5.47;;;;;;;;;;5060719;28;20040;-62
2022/06/20 09:12:54;;;;;;;23.52;5.30;;;;;;;;;;5060089;28;20028;-62
2022/06/20 09:15:20;;;;;;;37.47;6.88;;;;;;;;;;5058370;28;20078;-62
2022/06/20 09:17:53;;;;;;;31.08;5.38;;;;;;;;;;5065796;28;20055;-62
2022/06/20 09:20:19;;;;;;;;;;;;;;;;;;5055038;28;20037;-62
2022/06/20 09:22:51;;;;;;;31.38;6.60;;;;;;;;;;5061069;28;20276;-62
2022/06/20 09:25:33;;;;;;;23.15;5.60;;;;;;;;;;5056501;28;20405;-62
2022/06/20 09:28:05;;;;;;;22.65;5.00;;;;;;;;;;5059096;28;20037;-61
2022/06/20 09:30:31;;;;;;;44.03;7.22;;;;;;;;;;5055541;28;20067;-62
2022/06/20 09:33:14;;;;;;;23.67;5.95;;;;;;;;;;5059028;28;20035;-62
2022/06/20 09:35:55;;;;;;;31.75;5.53;;;;;;;;;;5055627;28;20400;-62
2022/06/20 09:38:30;;;;;;;26.25;6.88;;;;;;;;;;5069155;28;20403;-62
2022/06/20 09:41:01;;;;;;;20.98;5.53;;;;;;;;;;5067295;28;20048;-61
2022/06/20 09:43:42;;;;;;;19.10;5.70;;;;;;;;;;5064016;28;20488;-62
2022/06/20 09:46:31;;;;;;;32.20;6.20;;;;;;;;;;5063969;28;20487;-62
2022/06/20 09:49:03;;;;;;;25.33;5.63;;;;;;;;;;5069870;28;20028;-62
2022/06/20 09:51:45;;;;;;;25.23;5.88;;;;;;;;;;5056626;28;20035;-62
2022/06/20 09:54:26;;;;;;;30.15;5.72;;;;;;;;;;5057627;28;20455;-62
2022/06/20 09:56:52;;;;;;;33.22;6.38;;;;;;;;;;5064914;28;20113;-62
2022/06/20 09:59:55;;;;;;;31.48;7.10;;;;;;;;;;5071827;28;20048;-61
2022/06/20 10:02:36;;;;;;;35.45;7.28;;;;;;;;;;5017024;28;20052;-62
2022/06/20 10:05:13;;;;;;;36.08;7.55;;;;;;;;;;5009714;28;20033;-61
2022/06/20 10:07:43;;;;;;;39.38;7.80;;;;;;;;;;5010857;28;20498;-62
2022/06/20 10:10:15;;;;;;;25.95;5.95;;;;;;;;;;5010451;28;20132;-61
2022/06/20 10:12:59;;;;;;;30.23;6.73;;;;;;;;;;5009903;28;20382;-62
2022/06/20 10:15:29;;;;;;;25.80;6.35;;;;;;;;;;5009653;28;20041;-62
2022/06/20 10:18:04;;;;;;;25.77;7.05;;;;;;;;;;5017470;28;20417;-62
2022/06/20 10:20:50;;;;;;;27.40;6.22;;;;;;;;;;5014466;28;20033;-62
2022/06/20 10:23:25;;;;;;;35.15;7.20;;;;;;;;;;5020760;28;20080;-61
2022/06/20 10:25:51;;;;;;;42.28;6.78;;;;;;;;;;5013457;28;20383;-62
2022/06/20 10:28:21;;;;;;;35.10;6.28;;;;;;;;;;5018406;28;20030;-61
2022/06/20 10:30:55;;;;;;;23.13;7.30;;;;;;;;;;5012640;28;20050;-61
2022/06/20 10:33:24;;;;;;;38.60;7.68;;;;;;;;;;5012549;28;20056;-61
2022/06/20 10:35:53;;;;;;;30.73;6.95;;;;;;;;;;5034464;28;20040;-62
2022/06/20 10:38:19;;;;;;;35.80;6.78;;;;;;;;;;5074004;28;20029;-61
2022/06/20 10:40:48;;;;;;;30.67;7.00;;;;;;;;;;5068894;28;20075;-62
2022/06/20 10:43:34;;;;;;;23.83;6.35;;;;;;;;;;5064449;28;20392;-61
2022/06/20 10:46:09;;;;;;;31.20;6.47;;;;;;;;;;5012752;28;20069;-62
2022/06/20 10:48:51;;;;;;;27.25;7.70;;;;;;;;;;5029714;28;20045;-62
2022/06/20 10:51:23;;;;;;;39.35;7.63;;;;;;;;;;5017953;28;20045;-62
2022/06/20 10:53:49;;;;;;;35.00;7.63;;;;;;;;;;5019755;28;20033;-61
2022/06/20 10:56:27;;;;;;;28.73;6.57;;;;;;;;;;5026523;28;20100;-61
2022/06/20 10:59:02;;;;;;;38.47;7.82;;;;;;;;;;5018406;28;20414;-61
2022/06/20 11:01:36;;;;;;;38.47;8.00;;;;;;;;;;5025441;28;20139;-61
2022/06/20 11:04:05;;;;;;;39.35;8.27;;;;;;;;;;5020645;28;20064;-61
2022/06/20 11:06:32;;;;;;;35.70;7.55;;;;;;;;;;5020268;28;20029;-62
2022/06/20 11:09:12;;;;;;;30.90;6.85;;;;;;;;;;5026261;28;20044;-61
2022/06/20 11:11:56;;;;;;;25.58;5.90;;;;;;;;;;5016225;28;20690;-62
2022/06/20 11:14:36;;;;;;;25.10;7.18;;;;;;;;;;5014735;28;20108;-61
2022/06/20 11:17:21;;;;;;;43.13;8.50;;;;;;;;;;5023502;28;20050;-62
2022/06/20 11:20:00;;;;;;;28.10;8.32;;;;;;;;;;5014818;28;20049;-62
2022/06/20 11:22:39;;;;;;;38.30;7.03;;;;;;;;;;5023914;28;20048;-62
2022/06/20 11:25:24;;;;;;;32.78;6.30;;;;;;;;;;5066186;28;20392;-61
2022/06/20 11:28:13;;;;;;;28.95;6.18;;;;;;;;;;5061687;28;20067;-62
2022/06/20 11:31:08;;;;;;;24.73;6.30;;;;;;;;;;5013967;28;20081;-61
2022/06/20 11:36:19;;;;;;;27.15;6.80;;;;;;;;;;5020888;28;20052;-62
2022/06/20 11:38:48;;;;;;;28.00;5.53;;;;;;;;;;5013476;28;20018;-62
2022/06/20 11:41:17;;;;;;;28.67;6.22;;;;;;;;;;5018236;28;20545;-62
2022/06/20 11:43:56;;;;;;;27.30;7.45;;;;;;;;;;5022338;28;20037;-61
2022/06/20 11:46:40;;;;;;;27.90;6.38;;;;;;;;;;5023550;28;20047;-62
2022/06/20 11:49:12;;;;;;;24.95;6.03;;;;;;;;;;5027081;28;20524;-62
2022/06/20 11:51:38;;;;;;;40.83;6.93;;;;;;;;;;5014669;28;20032;-62
2022/06/20 11:54:07;;;;;;;28.30;6.90;;;;;;;;;;5024628;28;20034;-62
2022/06/20 11:56:39;;;;;;;38.25;6.45;;;;;;;;;;5018038;28;20508;-62
2022/06/20 11:59:17;;;;;;;25.55;5.57;;;;;;;;;;5017679;28;20517;-62
2022/06/20 12:02:02;;;;;;;22.98;6.13;;;;;;;;;;5022651;28;20040;-62
2022/06/20 12:04:34;;;;;;;31.30;6.50;;;;;;;;;;5017913;28;20071;-62
2022/06/20 12:07:06;;;;;;;32.78;6.90;;;;;;;;;;5028546;28;20515;-62
2022/06/20 12:09:32;;;;;;;30.48;6.80;;;;;;;;;;5064756;28;20037;-62
2022/06/20 12:12:17;;;;;;;28.67;7.60;;;;;;;;;;5056949;28;20025;-62
2022/06/20 12:14:55;;;;;;;29.98;6.38;;;;;;;;;;5061571;28;20032;-62
2022/06/20 12:17:33;;;;;;;23.67;5.78;;;;;;;;;;5056139;28;20475;-62
2022/06/20 12:26:06;;;;;;;25.75;6.75;;;;;;;;;;5066706;28;20040;-62
2022/06/20 12:28:33;;;;;;;23.75;5.55;;;;;;;;;;5061093;28;20143;-62
2022/06/20 12:31:10;;;;;;;26.20;5.10;;;;;;;;;;5061538;28;20021;-62
2022/06/20 12:33:38;;;;;;;22.17;4.93;;;;;;;;;;5060358;28;20032;-62
2022/06/20 12:36:07;;;;;;;27.50;6.30;;;;;;;;;;5060283;28;20064;-61
2022/06/20 12:38:33;;;;;;;27.77;5.30;;;;;;;;;;5062777;28;20021;-62
2022/06/20 12:41:01;;;;;;;26.88;5.88;;;;;;;;;;5060679;28;20419;-62
2022/06/20 12:43:29;;;;;;;27.50;5.30;;;;;;;;;;5060284;28;20045;-62
2022/06/20 12:46:04;;;;;;;22.05;4.78;;;;;;;;;;5064996;28;20040;-62
2022/06/20 12:48:42;;;;;;;23.50;5.72;;;;;;;;;;5059987;28;20037;-62
2022/06/20 12:51:11;;;;;;;28.23;5.80;;;;;;;;;;5062675;28;20036;-62
2022/06/20 12:53:40;;;;;;;21.08;5.10;;;;;;;;;;5062579;28;20028;-65
2022/06/20 12:56:18;;;;;;;23.48;6.15;;;;;;;;;;5067632;28;20170;-65
2022/06/20 12:58:53;;;;;;;28.17;5.45;;;;;;;;;;5058445;28;20044;-64
2022/06/20 13:01:28;;;;;;;18.90;4.38;;;;;;;;;;5065689;28;20032;-64
2022/06/20 13:03:54;;;;;;;26.80;5.28;;;;;;;;;;5060182;28;20032;-64
2022/06/20 13:06:20;;;;;;;21.75;5.72;;;;;;;;;;5064126;28;20173;-64
2022/06/20 13:09:01;;;;;;;19.85;4.65;;;;;;;;;;5064577;28;20028;-64
2022/06/20 13:11:28;;;;;;;24.13;5.68;;;;;;;;;;5057415;28;20053;-64
2022/06/20 13:13:57;;;;;;;29.75;5.28;;;;;;;;;;5052709;28;20032;-64
2022/06/20 13:16:26;;;;;;;18.30;5.10;;;;;;;;;;5061910;28;20064;-64
2022/06/20 13:18:52;;;;;;;28.23;6.30;;;;;;;;;;5063427;28;20035;-64
2022/06/20 13:21:37;;;;;;;24.77;6.28;;;;;;;;;;5062610;28;20055;-64
2022/06/20 13:24:12;;;;;;;17.80;4.88;;;;;;;;;;5058692;28;20089;-64
2022/06/20 13:26:50;;;;;;;25.40;4.72;;;;;;;;;;5061221;28;20083;-64
2022/06/20 13:29:27;;;;;;;23.60;4.68;;;;;;;;;;5059671;28;20025;-64
2022/06/20 13:32:19;;;;;;;15.10;4.15;;;;;;;;;;5059328;28;20064;-64
2022/06/20 13:34:49;;;;;;;26.83;6.00;;;;;;;;;;5060821;28;20044;-64
2022/06/20 13:37:23;;;;;;;17.17;4.88;;;;;;;;;;5054118;28;20397;-64
2022/06/20 13:39:52;;;;;;;23.38;6.05;;;;;;;;;;5070414;28;20485;-64
2022/06/20 13:42:23;;;;;;;25.13;5.03;;;;;;;;;;5052801;28;20071;-64
2022/06/20 13:44:58;;;;;;;16.77;4.53;;;;;;;;;;5070171;28;20060;-64
2022/06/20 13:47:35;;;;;;;17.95;5.00;;;;;;;;;;5054115;28;20107;-64
2022/06/20 13:50:21;;;;;;;23.23;5.50;;;;;;;;;;5062168;28;20032;-64
2022/06/20 13:52:55;;;;;;;23.90;6.43;;;;;;;;;;5060089;28;20017;-64
2022/06/20 13:55:24;;;;;;;13.02;3.83;;;;;;;;;;5053628;28;20025;-64
2022/06/20 13:58:02;;;;;;;18.98;5.55;;;;;;;;;;5059796;28;20021;-64
2022/06/20 14:00:30;;;;;;;15.45;4.15;;;;;;;;;;5057442;28;20045;-64
2022/06/20 14:02:57;;;;;;;13.60;4.57;;;;;;;;;;5065701;28;20032;-64
2022/06/20 14:05:24;;;;;;;17.85;4.90;;;;;;;;;;5058745;28;20037;-64
2022/06/20 14:07:53;;;;;;;21.42;4.53;;;;;;;;;;5060395;28;20065;-64
2022/06/20 14:10:24;;;;;;;15.82;4.95;;;;;;;;;;5062363;28;20119;-64
2022/06/20 14:12:52;;;;;;;16.03;4.10;;;;;;;;;;5062446;28;20035;-64
2022/06/20 14:15:21;;;;;;;20.02;4.43;;;;;;;;;;5059661;28;20677;-64
2022/06/20 14:17:52;;;;;;;16.35;4.57;;;;;;;;;;5055376;28;20024;-64
2022/06/20 14:20:21;;;;;;;20.15;4.70;;;;;;;;;;5056792;28;20036;-64
2022/06/20 14:22:48;;;;;;;22.17;4.72;;;;;;;;;;5063571;28;20400;-64
2022/06/20 14:25:20;;;;;;;14.45;4.53;;;;;;;;;;5063078;28;20032;-64
2022/06/20 14:27:50;;;;;;;21.60;5.05;;;;;;;;;;5063716;28;20104;-64
2022/06/20 14:30:25;;;;;;;21.55;5.45;;;;;;;;;;5069995;28;20037;-64
2022/06/20 14:33:01;;;;;;;25.27;4.80;;;;;;;;;;5058680;28;20458;-64
2022/06/20 14:35:31;;;;;;;24.50;4.65;;;;;;;;;;5067089;28;20069;-64
2022/06/20 14:38:20;;;;;;;15.38;4.05;;;;;;;;;;5067847;28;20107;-64
2022/06/20 14:40:59;;;;;;;18.20;5.30;;;;;;;;;;5022924;28;20113;-64
2022/06/20 14:43:38;;;;;;;24.20;4.78;;;;;;;;;;5017489;28;20464;-64
2022/06/20 14:46:12;;;;;;;23.27;4.55;;;;;;;;;;5004885;28;20461;-64
2022/06/20 14:48:51;;;;;;;22.67;4.47;;;;;;;;;;5014612;28;20513;-64
2022/06/20 14:51:21;;;;;;;24.23;4.10;;;;;;;;;;5020687;28;20046;-64
2022/06/20 14:54:16;;;;;;;18.90;4.15;;;;;;;;;;5025560;28;20034;-64
2022/06/20 14:56:47;;;;;;;18.67;4.93;;;;;;;;;;5003005;28;20087;-64
2022/06/20 14:59:17;;;;;;;18.50;4.75;;;;;;;;;;5025850;28;20041;-64
2022/06/20 15:01:49;;;;;;;16.60;4.50;;;;;;;;;;5021418;28;20029;-64
2022/06/20 15:04:18;;;;;;;16.05;4.97;;;;;;;;;;5019968;28;20048;-64
2022/06/20 15:06:44;;;;;;;22.33;4.05;;;;;;;;;;5014243;28;20034;-64
2022/06/20 15:09:21;;;;;;;23.08;4.65;;;;;;;;;;5019443;28;20037;-64
2022/06/20 15:11:53;;;;;;;18.65;4.07;;;;;;;;;;5001080;28;20394;-64
2022/06/20 15:14:20;;;;;;;22.27;4.80;;;;;;;;;;5013101;28;20034;-64
2022/06/20 15:16:52;;;;;;;19.85;4.97;;;;;;;;;;5022124;28;20037;-64